| time (UTC) | temp C | wind direction | speed KPH | gust KPH | rain 1hr cm | rain 24hr cm | rain mn cm | humidity % | barometer mb |
| 20260509224004 | 16 | 200 | 1.6 | 11.3 | 0.00 | 1.63 | 1.24 | 73 | 1006.3 |
| 20260509223004 | 16 | 188 | 3.2 | 9.7 | 0.00 | 1.63 | 1.24 | 73 | 1006.4 |
| 20260509222004 | 16 | 208 | 4.8 | 11.3 | 0.00 | 1.63 | 1.24 | 72 | 1006.4 |
| 20260509221004 | 16 | 204 | 6.4 | 14.5 | 0.00 | 1.63 | 1.24 | 73 | 1006.2 |
| 20260509215004 | 16 | 214 | 6.4 | 24.1 | 0.00 | 1.65 | 1.24 | 76 | 1006.3 |
| 20260509214004 | 16 | 204 | 6.4 | 16.1 | 0.00 | 1.65 | 1.24 | 76 | 1006.4 |
| 20260509213005 | 16 | 193 | 6.4 | 14.5 | 0.00 | 1.65 | 1.24 | 75 | 1006.6 |
| 20260509212004 | 16 | 230 | 6.4 | 20.9 | 0.00 | 1.65 | 1.24 | 75 | 1006.6 |
| 20260509211004 | 16 | 222 | 4.8 | 17.7 | 0.00 | 1.65 | 1.24 | 75 | 1006.6 |
| 20260509210004 | 16 | 212 | 6.4 | 12.9 | 0.00 | 1.65 | 1.24 | 79 | 1006.8 |
| 20260509205005 | 16 | 250 | 6.4 | 16.1 | 0.00 | 1.65 | 1.24 | 78 | 1007.0 |
| 20260509204004 | 15 | 202 | 6.4 | 19.3 | 0.00 | 1.65 | 1.24 | 80 | 1007.0 |
| 20260509202004 | 15 | 160 | 6.4 | 16.1 | 0.00 | 1.65 | 1.24 | 83 | 1007.3 |
| 20260509201004 | 15 | 184 | 6.4 | 16.1 | 0.00 | 1.65 | 1.24 | 84 | 1007.5 |
| 20260509200004 | 15 | 181 | 4.8 | 12.9 | 0.00 | 1.65 | 1.24 | 85 | 1007.7 |
| 20260509195004 | 14 | 171 | 3.2 | 12.9 | 0.00 | 1.65 | 1.24 | 88 | 1007.8 |
| 20260509193004 | 14 | 173 | 6.4 | 19.3 | 0.00 | 1.65 | 1.24 | 90 | 1007.8 |
| 20260509192004 | 13 | 170 | 4.8 | 17.7 | 0.00 | 1.65 | 1.24 | 93 | 1008.0 |
| 20260509191004 | 13 | 209 | 3.2 | 9.7 | 0.03 | 1.65 | 1.24 | 95 | 1008.2 |
| 20260509190004 | 13 | 184 | 3.2 | 12.9 | 0.05 | 1.65 | 1.24 | 96 | 1008.2 |
| 20260509185004 | 12 | 198 | 3.2 | 11.3 | 0.05 | 1.65 | 1.24 | 100 | 1008.2 |
| 20260509184004 | 12 | 218 | 3.2 | 9.7 | 0.05 | 1.65 | 1.24 | 97 | 1008.3 |
| 20260509183004 | 12 | 237 | 1.6 | 4.8 | 0.05 | 1.65 | 1.24 | 100 | 1008.4 |
| 20260509182004 | 11 | 237 | 1.6 | 8.0 | 0.03 | 1.63 | 1.22 | 97 | 1008.4 |
| 20260509181004 | 11 | 238 | 3.2 | 6.4 | 0.00 | 1.60 | 1.19 | 97 | 1008.4 |
| 20260509180004 | 11 | 238 | 0.0 | 6.4 | 0.00 | 1.60 | 1.19 | 97 | 1008.3 |
| 20260509175004 | 11 | 0 | 0.0 | 1.6 | 0.00 | 1.60 | 1.19 | 100 | 1008.5 |
| 20260509174004 | 11 | 237 | 1.6 | 4.8 | 0.00 | 1.60 | 1.19 | 97 | 1008.4 |
| 20260509173004 | 11 | 237 | 1.6 | 6.4 | 0.00 | 1.60 | 1.19 | 100 | 1008.5 |
| 20260509171004 | 10 | 238 | 1.6 | 6.4 | 0.00 | 1.60 | 1.19 | 97 | 1008.4 |
| 20260509170004 | 10 | 238 | 3.2 | 6.4 | 0.00 | 1.60 | 1.19 | 100 | 1008.4 |
| 20260509165004 | 10 | 234 | 1.6 | 8.0 | 0.03 | 1.60 | 1.19 | 100 | 1008.2 |
| 20260509164004 | 10 | 230 | 1.6 | 4.8 | 0.03 | 1.60 | 1.19 | 100 | 1008.2 |
| 20260509163004 | 10 | 194 | 3.2 | 8.0 | 0.03 | 1.60 | 1.19 | 100 | 1008.2 |
| 20260509162003 | 10 | 176 | 0.0 | 6.4 | 0.03 | 1.60 | 1.19 | 100 | 1008.1 |
| 20260509161004 | 10 | 0 | 0.0 | 3.2 | 0.03 | 1.60 | 1.19 | 100 | 1008.2 |
| 20260509160004 | 10 | 176 | 1.6 | 3.2 | 0.03 | 1.60 | 1.19 | 100 | 1008.2 |
| 20260509155004 | 10 | 176 | 1.6 | 4.8 | 0.00 | 1.57 | 1.17 | 100 | 1008.2 |
| 20260509154004 | 10 | 176 | 1.6 | 6.4 | 0.00 | 1.57 | 1.17 | 97 | 1008.3 |
| 20260509153004 | 10 | 173 | 1.6 | 4.8 | 0.00 | 1.57 | 1.17 | 100 | 1008.4 |
| 20260509152004 | 10 | 0 | 0.0 | 3.2 | 0.00 | 1.57 | 1.17 | 97 | 1008.4 |
| 20260509151004 | 10 | 0 | 0.0 | 4.8 | 0.00 | 1.57 | 1.17 | 97 | 1008.5 |
| 20260509150005 | 9 | 173 | 0.0 | 4.8 | 0.00 | 1.57 | 1.17 | 97 | 1008.5 |
| 20260509145004 | 9 | 173 | 1.6 | 6.4 | 0.00 | 1.57 | 1.17 | 100 | 1008.6 |
| 20260509144004 | 9 | 173 | 1.6 | 8.0 | 0.00 | 1.57 | 1.17 | 100 | 1008.6 |
| 20260509143004 | 9 | 184 | 3.2 | 9.7 | 0.00 | 1.57 | 1.17 | 97 | 1008.6 |
| 20260509142004 | 9 | 190 | 3.2 | 6.4 | 0.00 | 1.57 | 1.17 | 100 | 1008.8 |
| 20260509141004 | 9 | 209 | 3.2 | 11.3 | 0.00 | 1.57 | 1.17 | 100 | 1008.6 |
| 20260509135004 | 8 | 257 | 3.2 | 9.7 | 0.00 | 1.57 | 1.17 | 100 | 1008.6 |
| 20260509134004 | 8 | 258 | 3.2 | 8.0 | 0.00 | 1.57 | 1.17 | 100 | 1008.6 |
| 20260509133004 | 8 | 259 | 1.6 | 12.9 | 0.00 | 1.57 | 1.17 | 100 | 1008.6 |
| 20260509132004 | 8 | 260 | 1.6 | 9.7 | 0.00 | 1.57 | 1.17 | 100 | 1008.8 |
| 20260509131004 | 8 | 261 | 3.2 | 8.0 | 0.03 | 1.57 | 1.17 | 100 | 1009.0 |
| 20260509130005 | 8 | 260 | 1.6 | 12.9 | 0.03 | 1.57 | 1.17 | 100 | 1009.0 |
| 20260509125004 | 8 | 0 | 0.0 | 6.4 | 0.05 | 1.57 | 1.17 | 100 | 1009.0 |
| 20260509124005 | 8 | 0 | 0.0 | 0.0 | 0.08 | 1.57 | 1.17 | 100 | 1009.0 |
| 20260509122005 | 8 | 0 | 0.0 | 0.0 | 0.15 | 1.57 | 1.17 | 100 | 1009.0 |
| 20260509121004 | 8 | 0 | 0.0 | 1.6 | 0.15 | 1.55 | 1.14 | 100 | 1009.1 |
| 20260509120004 | 8 | 0 | 0.0 | 1.6 | 0.18 | 1.55 | 1.14 | 100 | 1009.2 |
| 20260509115004 | 8 | 0 | 0.0 | 4.8 | 0.23 | 1.52 | 1.12 | 100 | 1009.2 |
| 20260509114004 | 8 | 0 | 0.0 | 0.0 | 0.20 | 1.47 | 1.07 | 97 | 1009.1 |
| 20260509113004 | 8 | 260 | 1.6 | 6.4 | 0.18 | 1.45 | 1.04 | 97 | 1009.3 |
| 20260509112004 | 8 | 260 | 0.0 | 6.4 | 0.18 | 1.45 | 1.02 | 100 | 1009.4 |
| 20260509111004 | 8 | 260 | 1.6 | 8.0 | 0.18 | 1.45 | 0.99 | 100 | 1009.3 |
| 20260509110004 | 8 | 260 | 1.6 | 3.2 | 0.15 | 1.40 | 0.94 | 97 | 1009.3 |
| 20260509105004 | 8 | 259 | 3.2 | 8.0 | 0.13 | 1.35 | 0.89 | 97 | 1009.2 |
| 20260509104004 | 8 | 259 | 3.2 | 8.0 | 0.13 | 1.32 | 0.86 | 97 | 1009.1 |
| 20260509103004 | 8 | 260 | 4.8 | 9.7 | 0.15 | 1.32 | 0.86 | 97 | 1009.1 |
| 20260509102004 | 8 | 259 | 4.8 | 11.3 | 0.18 | 1.30 | 0.84 | 97 | 1009.2 |
| 20260509100004 | 8 | 260 | 1.6 | 9.7 | 0.18 | 1.24 | 0.79 | 97 | 1009.2 |
| 20260509095003 | 8 | 262 | 1.6 | 8.0 | 0.18 | 1.22 | 0.76 | 97 | 1009.4 |
| 20260509094004 | 8 | 262 | 0.0 | 8.0 | 0.18 | 1.19 | 0.74 | 97 | 1009.5 |
| 20260509093004 | 8 | 262 | 0.0 | 4.8 | 0.18 | 1.17 | 0.71 | 97 | 1009.4 |
| 20260509092004 | 8 | 262 | 3.2 | 4.8 | 0.15 | 1.12 | 0.66 | 97 | 1009.4 |
| 20260509091003 | 8 | 262 | 3.2 | 11.3 | 0.15 | 1.09 | 0.64 | 97 | 1009.6 |
| 20260509090004 | 7 | 265 | 1.6 | 9.7 | 0.15 | 1.07 | 0.61 | 97 | 1009.5 |
| 20260509085004 | 7 | 266 | 1.6 | 4.8 | 0.15 | 1.04 | 0.58 | 97 | 1009.4 |
| 20260509084004 | 7 | 266 | 0.0 | 6.4 | 0.15 | 1.02 | 0.56 | 97 | 1009.4 |
| 20260509083004 | 7 | 0 | 0.0 | 0.0 | 0.15 | 0.99 | 0.53 | 97 | 1009.5 |
| 20260509081004 | 7 | 0 | 0.0 | 1.6 | 0.13 | 0.94 | 0.48 | 97 | 1009.3 |
| 20260509080004 | 7 | 0 | 0.0 | 0.0 | 0.10 | 0.91 | 0.46 | 97 | 1009.4 |
| 20260509075004 | 7 | 0 | 0.0 | 3.2 | 0.08 | 0.89 | 0.43 | 96 | 1009.7 |
| 20260509074004 | 7 | 0 | 0.0 | 0.0 | 0.08 | 0.86 | 0.41 | 97 | 1009.6 |
| 20260509072004 | 7 | 0 | 0.0 | 0.0 | 0.05 | 0.81 | 0.36 | 96 | 1009.8 |
| 20260509071004 | 7 | 0 | 0.0 | 0.0 | 0.05 | 0.81 | 0.36 | 96 | 1010.0 |
| 20260509070004 | 7 | 266 | 1.6 | 4.8 | 0.05 | 0.81 | 0.36 | 96 | 1010.0 |
| 20260509065004 | 7 | 266 | 0.0 | 4.8 | 0.08 | 0.81 | 0.36 | 96 | 1010.3 |
| 20260509064004 | 7 | 0 | 0.0 | 4.8 | 0.05 | 0.79 | 0.33 | 96 | 1010.4 |
| 20260509063004 | 7 | 0 | 0.0 | 1.6 | 0.05 | 0.76 | 0.30 | 96 | 1010.5 |
| 20260509062004 | 7 | 0 | 0.0 | 0.0 | 0.05 | 0.76 | 0.30 | 96 | 1010.7 |
| 20260509061004 | 7 | 0 | 0.0 | 0.0 | 0.08 | 0.76 | 0.30 | 96 | 1010.9 |
| 20260509060004 | 7 | 0 | 0.0 | 0.0 | 0.10 | 0.76 | 0.30 | 96 | 1011.0 |
| 20260509054004 | 7 | 0 | 0.0 | 3.2 | 0.13 | 0.74 | 0.28 | 96 | 1011.3 |
| 20260509052004 | 7 | 253 | 3.2 | 11.3 | 0.15 | 0.71 | 0.25 | 96 | 1011.4 |
| 20260509051004 | 7 | 236 | 1.6 | 8.0 | 0.15 | 0.66 | 0.23 | 95 | 1011.6 |
| 20260509050004 | 7 | 237 | 0.0 | 4.8 | 0.20 | 0.66 | 0.20 | 95 | 1011.5 |
| 20260509045004 | 8 | 0 | 0.0 | 3.2 | 0.20 | 0.61 | 0.15 | 95 | 1011.5 |
| 20260509044004 | 8 | 0 | 0.0 | 3.2 | 0.20 | 0.61 | 0.15 | 95 | 1011.7 |
| 20260509043005 | 8 | 0 | 0.0 | 0.0 | 0.18 | 0.56 | 0.10 | 95 | 1011.7 |
| 20260509042004 | 8 | 236 | 1.6 | 4.8 | 0.20 | 0.56 | 0.10 | 95 | 1011.8 |
| 20260509041004 | 8 | 0 | 0.0 | 4.8 | 0.15 | 0.51 | 0.05 | 94 | 1012.1 |
| 20260509040006 | 8 | 0 | 0.0 | 0.0 | 0.13 | 0.46 | 0.00 | 94 | 1012.0 |
| 20260509035004 | 8 | 0 | 0.0 | 0.0 | 0.10 | 0.41 | 0.41 | 94 | 1012.0 |
| 20260509034004 | 8 | 0 | 0.0 | 0.0 | 0.10 | 0.41 | 0.41 | 94 | 1012.0 |
| 20260509033004 | 8 | 0 | 0.0 | 0.0 | 0.10 | 0.38 | 0.38 | 94 | 1011.9 |
| 20260509032004 | 8 | 0 | 0.0 | 0.0 | 0.13 | 0.36 | 0.36 | 93 | 1012.0 |
| 20260509031004 | 8 | 0 | 0.0 | 0.0 | 0.15 | 0.36 | 0.36 | 93 | 1012.0 |
| 20260509030004 | 8 | 0 | 0.0 | 0.0 | 0.15 | 0.33 | 0.33 | 93 | 1012.0 |
| 20260509024004 | 8 | 0 | 0.0 | 1.6 | 0.18 | 0.30 | 0.30 | 93 | 1012.1 |
| 20260509023004 | 8 | 0 | 0.0 | 3.2 | 0.20 | 0.28 | 0.28 | 93 | 1012.0 |
| 20260509021004 | 8 | 237 | 1.6 | 4.8 | 0.13 | 0.20 | 0.20 | 92 | 1012.3 |
| 20260509020005 | 8 | 237 | 1.6 | 8.0 | 0.10 | 0.18 | 0.18 | 92 | 1012.1 |
| 20260509015004 | 8 | 239 | 0.0 | 8.0 | 0.10 | 0.18 | 0.18 | 91 | 1012.0 |
| 20260509013004 | 9 | 0 | 0.0 | 1.6 | 0.00 | 0.08 | 0.08 | 90 | 1012.1 |
| 20260509012004 | 9 | 0 | 0.0 | 0.0 | 0.00 | 0.08 | 0.08 | 90 | 1011.9 |
| 20260509011004 | 9 | 0 | 0.0 | 3.2 | 0.00 | 0.08 | 0.08 | 89 | 1011.7 |
| 20260509010004 | 9 | 0 | 0.0 | 4.8 | 0.00 | 0.08 | 0.08 | 89 | 1011.5 |
| 20260509005004 | 9 | 243 | 1.6 | 4.8 | 0.00 | 0.08 | 0.08 | 88 | 1011.3 |
| 20260509004004 | 9 | 223 | 3.2 | 9.7 | 0.00 | 0.08 | 0.08 | 88 | 1011.2 |
| 20260509002005 | 10 | 198 | 1.6 | 8.0 | 0.00 | 0.10 | 0.08 | 85 | 1011.0 |
| 20260509001004 | 10 | 187 | 1.6 | 9.7 | 0.00 | 0.10 | 0.08 | 84 | 1011.1 |
| 20260509000005 | 10 | 175 | 1.6 | 6.4 | 0.00 | 0.10 | 0.08 | 83 | 1011.0 |
| 20260508235004 | 10 | 173 | 3.2 | 6.4 | 0.00 | 0.10 | 0.08 | 81 | 1011.0 |
| 20260508234004 | 11 | 205 | 4.8 | 14.5 | 0.00 | 0.13 | 0.08 | 79 | 1011.0 |
| 20260508233004 | 11 | 223 | 4.8 | 25.7 | 0.00 | 0.15 | 0.08 | 77 | 1010.9 |
| 20260508231004 | 11 | 224 | 3.2 | 17.7 | 0.00 | 0.15 | 0.08 | 75 | 1010.6 |
| 20260508225004 | 12 | 255 | 4.8 | 16.1 | 0.03 | 0.15 | 0.08 | 74 | 1010.4 |